Time;durP1;ratioP1;P1;durP2;ratioP2;P2;SDS_P1;SDS_P2;PMS_P1;PMS_P2;Temp;Humidity;BMP_temperature;BMP_pressure;BME280_temperature;BME280_humidity;BME280_pressure;Samples;Min_cycle;Max_cycle;Signal;HPM_P1;HPM_P2
2023/06/11 00:00:20;;;;;;;6.80;5.30;;;19.50;85.90;;;;;;5077011;28;20407;-83
2023/06/11 00:02:46;;;;;;;7.03;5.25;;;19.50;85.90;;;;;;5073702;28;20025;-84
2023/06/11 00:05:12;;;;;;;7.45;5.40;;;19.40;85.90;;;;;;5073510;28;20032;-83
2023/06/11 00:07:38;;;;;;;7.60;5.60;;;19.40;86.00;;;;;;5075467;28;20020;-83
2023/06/11 00:10:05;;;;;;;6.50;5.18;;;19.40;86.00;;;;;;5075043;28;20019;-83
2023/06/11 00:12:32;;;;;;;6.82;5.43;;;19.40;86.10;;;;;;5075437;28;20013;-84
2023/06/11 00:15:01;;;;;;;7.47;5.97;;;19.40;86.10;;;;;;5073009;28;20025;-83
2023/06/11 00:17:27;;;;;;;7.10;5.60;;;19.40;86.10;;;;;;5073462;28;20081;-84
2023/06/11 00:19:53;;;;;;;7.10;5.88;;;19.40;86.20;;;;;;5072881;28;20108;-84
2023/06/11 00:22:18;;;;;;;6.63;5.30;;;19.40;86.30;;;;;;5074468;28;20028;-84
2023/06/11 00:24:44;;;;;;;7.70;6.30;;;19.40;86.20;;;;;;5072120;28;20538;-83
2023/06/11 00:27:09;;;;;;;7.50;6.40;;;19.40;86.30;;;;;;5072078;28;20035;-84
2023/06/11 00:29:35;;;;;;;7.43;6.03;;;19.40;86.30;;;;;;5073238;28;20025;-83
2023/06/11 00:32:00;;;;;;;7.18;5.85;;;19.40;86.30;;;;;;5073919;28;20107;-84
2023/06/11 00:34:26;;;;;;;7.50;6.25;;;19.40;86.20;;;;;;5073903;28;20047;-84
2023/06/11 00:36:52;;;;;;;6.75;5.47;;;19.40;86.30;;;;;;5071646;28;20592;-83
2023/06/11 00:39:18;;;;;;;7.18;5.53;;;19.40;86.20;;;;;;5073571;28;20048;-83
2023/06/11 00:41:45;;;;;;;7.05;5.80;;;19.40;86.30;;;;;;5071696;28;20037;-83
2023/06/11 00:44:21;;;;;;;8.18;6.85;;;19.40;86.30;;;;;;5073125;28;20016;-83
2023/06/11 00:46:48;;;;;;;7.22;5.85;;;19.40;86.30;;;;;;5072973;28;20028;-83
2023/06/11 00:49:14;;;;;;;7.28;6.00;;;19.40;86.30;;;;;;5071636;28;20396;-83
2023/06/11 00:51:44;;;;;;;7.18;6.00;;;19.40;86.40;;;;;;5075163;28;20020;-84
2023/06/11 00:54:13;;;;;;;6.72;5.53;;;19.40;86.20;;;;;;5076434;28;20033;-84
2023/06/11 00:56:44;;;;;;;6.80;5.60;;;19.40;86.20;;;;;;5082341;28;20024;-85
2023/06/11 00:59:13;;;;;;;7.28;5.88;;;19.50;86.10;;;;;;5090803;28;20024;-85
2023/06/11 01:01:48;;;;;;;6.68;5.30;;;19.50;86.00;;;;;;5090274;28;20028;-85
2023/06/11 01:04:17;;;;;;;6.55;5.30;;;19.50;86.00;;;;;;5089625;28;20609;-84
2023/06/11 01:06:49;;;;;;;6.53;5.30;;;19.50;85.90;;;;;;5089139;28;20012;-86
2023/06/11 01:09:20;;;;;;;7.40;5.85;;;19.50;85.80;;;;;;5088899;28;20046;-84
2023/06/11 01:11:48;;;;;;;7.15;5.55;;;19.60;85.80;;;;;;5088563;28;20020;-85
2023/06/11 01:14:17;;;;;;;6.85;5.72;;;19.50;85.80;;;;;;5088283;28;20051;-84
2023/06/11 01:16:54;;;;;;;6.90;6.03;;;19.60;85.80;;;;;;5086407;28;20021;-84
2023/06/11 01:19:28;;;;;;;6.97;5.88;;;19.60;85.80;;;;;;5087736;28;20020;-84
2023/06/11 01:21:59;;;;;;;8.13;6.55;;;19.50;85.80;;;;;;5085608;28;20020;-84
2023/06/11 01:24:51;;;;;;;7.25;6.30;;;19.50;85.90;;;;;;5084252;28;20032;-85
2023/06/11 01:27:49;;;;;;;8.13;6.78;;;19.50;86.00;;;;;;5085411;28;20070;-84
2023/06/11 01:30:20;;;;;;;8.38;6.35;;;19.40;86.00;;;;;;5085061;28;20069;-84
2023/06/11 01:32:52;;;;;;;6.75;5.85;;;19.40;86.10;;;;;;5082640;28;20024;-83
2023/06/11 01:35:17;;;;;;;7.75;6.53;;;19.40;86.20;;;;;;5083831;28;20024;-85
2023/06/11 01:37:45;;;;;;;7.53;6.28;;;19.40;86.20;;;;;;5081788;28;20210;-84
2023/06/11 01:40:13;;;;;;;7.00;6.10;;;19.40;86.20;;;;;;5083361;28;20021;-85
2023/06/11 01:42:38;;;;;;;7.20;5.65;;;19.40;86.30;;;;;;5086574;28;20028;-86
2023/06/11 01:45:05;;;;;;;6.85;5.55;;;19.40;86.30;;;;;;5089428;28;20096;-85
2023/06/11 01:47:31;;;;;;;6.97;5.70;;;19.40;86.30;;;;;;5088389;28;20377;-85
2023/06/11 01:49:57;;;;;;;7.03;5.68;;;19.40;86.40;;;;;;5087194;28;20023;-85
2023/06/11 01:52:24;;;;;;;7.47;5.75;;;19.40;86.40;;;;;;5088044;28;20023;-85
2023/06/11 01:54:50;;;;;;;7.22;5.95;;;19.40;86.40;;;;;;5086831;28;20031;-84
2023/06/11 01:57:15;;;;;;;7.55;6.47;;;19.40;86.40;;;;;;5087723;28;20024;-85
2023/06/11 01:59:41;;;;;;;7.53;6.38;;;19.40;86.50;;;;;;5085738;28;20061;-84
2023/06/11 02:02:06;;;;;;;7.68;6.63;;;19.40;86.50;;;;;;5084812;28;20081;-84
2023/06/11 02:04:32;;;;;;;7.78;6.40;;;19.40;86.50;;;;;;5083982;28;20036;-84
2023/06/11 02:06:58;;;;;;;7.03;6.05;;;19.40;86.50;;;;;;5085831;28;20037;-84
2023/06/11 02:09:24;;;;;;;8.45;6.60;;;19.40;86.60;;;;;;5083346;28;20077;-85
2023/06/11 02:11:49;;;;;;;7.45;6.10;;;19.40;86.60;;;;;;5084875;28;20021;-85
2023/06/11 02:14:15;;;;;;;7.53;6.43;;;19.40;86.60;;;;;;5082191;28;20515;-85
2023/06/11 02:16:40;;;;;;;7.47;5.88;;;19.40;86.50;;;;;;5082561;28;20017;-84
2023/06/11 02:19:07;;;;;;;8.20;6.80;;;19.40;86.50;;;;;;5083908;28;20044;-86
2023/06/11 02:21:33;;;;;;;7.60;6.47;;;19.40;86.60;;;;;;5081510;28;20025;-84
2023/06/11 02:23:59;;;;;;;7.45;6.15;;;19.40;86.60;;;;;;5082934;28;20370;-85
2023/06/11 02:26:25;;;;;;;8.00;6.47;;;19.40;86.50;;;;;;5080785;28;20021;-84
2023/06/11 02:28:51;;;;;;;6.70;5.45;;;19.40;86.50;;;;;;5079916;28;20017;-84
2023/06/11 02:31:17;;;;;;;6.90;5.72;;;19.40;86.40;;;;;;5079252;28;20035;-84
2023/06/11 02:33:42;;;;;;;7.55;6.20;;;19.40;86.30;;;;;;5079291;28;20114;-83
2023/06/11 02:36:08;;;;;;;6.75;5.47;;;19.40;86.70;;;;;;5079541;28;20037;-84
2023/06/11 02:38:33;;;;;;;7.32;5.72;;;19.40;86.10;;;;;;5078704;28;20028;-84
2023/06/11 02:40:59;;;;;;;7.03;5.90;;;19.50;86.10;;;;;;5078556;28;20036;-84
2023/06/11 02:43:24;;;;;;;6.70;5.30;;;19.50;86.10;;;;;;5091593;28;20032;-85
2023/06/11 02:45:50;;;;;;;6.65;5.43;;;19.50;86.00;;;;;;5098244;28;20075;-84
2023/06/11 02:48:15;;;;;;;6.93;5.53;;;19.50;86.00;;;;;;5098914;28;20031;-85
2023/06/11 02:50:41;;;;;;;6.78;5.28;;;19.50;85.90;;;;;;5097987;28;20035;-84
2023/06/11 02:53:06;;;;;;;7.18;5.70;;;19.50;85.90;;;;;;5098900;28;20099;-84
2023/06/11 02:55:32;;;;;;;7.40;5.97;;;19.50;85.90;;;;;;5097320;28;20115;-84
2023/06/11 02:57:57;;;;;;;7.82;6.47;;;19.50;86.00;;;;;;5098580;28;20443;-84
2023/06/11 03:00:23;;;;;;;7.32;6.30;;;19.50;86.10;;;;;;5096801;28;20020;-84
2023/06/11 03:02:48;;;;;;;7.25;6.07;;;19.40;86.10;;;;;;5097373;28;20107;-84
2023/06/11 03:05:13;;;;;;;7.60;6.43;;;19.50;86.20;;;;;;5095972;28;20365;-84
2023/06/11 03:07:39;;;;;;;7.75;6.75;;;19.40;86.20;;;;;;5095153;28;20038;-84
2023/06/11 03:10:05;;;;;;;7.57;6.78;;;19.40;86.40;;;;;;5096943;28;20020;-84
2023/06/11 03:12:30;;;;;;;8.45;7.13;;;19.40;86.50;;;;;;5096262;28;20020;-84
2023/06/11 03:14:56;;;;;;;8.18;6.78;;;19.40;86.50;;;;;;5094695;28;20024;-85
2023/06/11 03:17:21;;;;;;;7.75;6.47;;;19.40;86.50;;;;;;5094646;28;20703;-84
2023/06/11 03:19:47;;;;;;;7.32;5.88;;;19.40;86.50;;;;;;5093805;28;20052;-84
2023/06/11 03:22:13;;;;;;;7.00;5.85;;;19.40;86.50;;;;;;5094147;28;20024;-84
2023/06/11 03:24:38;;;;;;;6.90;5.90;;;19.40;86.50;;;;;;5093409;28;20035;-84
2023/06/11 03:27:05;;;;;;;6.88;5.65;;;19.40;86.50;;;;;;5093926;28;20012;-84
2023/06/11 03:29:30;;;;;;;6.85;5.68;;;19.40;86.50;;;;;;5093484;28;20028;-84
2023/06/11 03:31:56;;;;;;;7.00;5.63;;;19.40;86.60;;;;;;5093437;28;20070;-84
2023/06/11 03:34:22;;;;;;;7.22;6.35;;;19.30;86.60;;;;;;5095017;28;20395;-84
2023/06/11 03:36:48;;;;;;;7.25;5.88;;;19.40;86.60;;;;;;5094688;28;20410;-84
2023/06/11 03:39:13;;;;;;;7.68;6.25;;;19.30;86.60;;;;;;5093484;28;20083;-83
2023/06/11 03:41:39;;;;;;;8.02;6.60;;;19.30;86.60;;;;;;5092896;28;20020;-84
2023/06/11 03:44:04;;;;;;;7.35;6.00;;;19.30;86.60;;;;;;5092823;28;20024;-84
2023/06/11 03:46:30;;;;;;;9.10;7.07;;;19.30;86.60;;;;;;5092624;28;20021;-84
2023/06/11 03:48:56;;;;;;;8.05;7.07;;;19.30;86.60;;;;;;5092456;28;20412;-83
2023/06/11 03:51:22;;;;;;;8.45;7.10;;;19.30;86.70;;;;;;5093987;28;20425;-84
2023/06/11 03:53:48;;;;;;;7.80;6.53;;;19.30;86.60;;;;;;5093808;28;20032;-84
2023/06/11 03:56:13;;;;;;;8.30;6.75;;;19.30;86.60;;;;;;5092076;28;20024;-82
2023/06/11 03:58:39;;;;;;;8.32;6.90;;;19.30;86.60;;;;;;5092928;28;20051;-83
2023/06/11 04:01:05;;;;;;;7.40;6.25;;;19.30;86.60;;;;;;5091969;28;20024;-84
2023/06/11 04:03:30;;;;;;;7.25;6.22;;;19.40;86.60;;;;;;5092230;28;20051;-84
2023/06/11 04:05:56;;;;;;;7.05;5.70;;;19.40;86.50;;;;;;5096149;28;20202;-86
2023/06/11 04:08:21;;;;;;;7.47;6.28;;;19.40;86.40;;;;;;5106559;28;20024;-86
2023/06/11 04:10:47;;;;;;;7.45;6.32;;;19.40;86.30;;;;;;5107053;28;20039;-86
2023/06/11 04:13:12;;;;;;;6.90;5.72;;;19.40;86.20;;;;;;5106493;28;20028;-86
2023/06/11 04:15:38;;;;;;;7.85;6.05;;;19.50;86.10;;;;;;5106428;28;20028;-85
2023/06/11 04:18:03;;;;;;;7.22;5.90;;;19.50;86.10;;;;;;5105231;28;20476;-85
2023/06/11 04:20:29;;;;;;;7.53;6.40;;;19.50;86.00;;;;;;5106519;28;20039;-85
2023/06/11 04:22:55;;;;;;;7.50;6.32;;;19.50;86.00;;;;;;5104435;28;20031;-85
2023/06/11 04:25:20;;;;;;;7.78;6.50;;;19.50;85.90;;;;;;5105712;28;20020;-84
2023/06/11 04:27:47;;;;;;;7.47;6.22;;;19.50;85.90;;;;;;5107298;28;20021;-84
2023/06/11 04:30:14;;;;;;;8.32;6.88;;;19.50;86.00;;;;;;5108520;28;20073;-85
2023/06/11 04:32:40;;;;;;;7.97;7.15;;;19.50;86.10;;;;;;5106425;28;20100;-84
2023/06/11 04:35:06;;;;;;;8.55;7.63;;;19.50;86.00;;;;;;5107224;28;20020;-85
2023/06/11 04:37:38;;;;;;;7.93;7.03;;;19.50;86.20;;;;;;5106397;28;20506;-85
2023/06/11 04:40:09;;;;;;;7.78;6.72;;;19.40;86.20;;;;;;5102701;28;20111;-84
2023/06/11 04:42:40;;;;;;;8.00;6.82;;;19.40;86.30;;;;;;5104457;28;20400;-86
2023/06/11 04:45:07;;;;;;;7.85;6.93;;;19.40;86.30;;;;;;5092525;28;20400;-84
2023/06/11 04:47:34;;;;;;;7.95;6.65;;;19.40;86.30;;;;;;5084606;28;20086;-85
2023/06/11 04:50:04;;;;;;;8.18;6.80;;;19.40;86.30;;;;;;5082259;28;20025;-86
2023/06/11 04:52:42;;;;;;;7.82;6.60;;;19.40;86.40;;;;;;5087208;28;20020;-87
2023/06/11 04:55:12;;;;;;;7.57;6.22;;;19.40;86.30;;;;;;5094452;28;20012;-85
2023/06/11 04:57:38;;;;;;;8.23;6.93;;;19.40;86.30;;;;;;5109740;28;20020;-85
2023/06/11 05:00:07;;;;;;;8.05;6.97;;;19.40;86.40;;;;;;5109143;28;20044;-85
2023/06/11 05:02:37;;;;;;;8.43;6.43;;;19.40;86.40;;;;;;5109656;28;20062;-86
2023/06/11 05:05:06;;;;;;;7.55;6.07;;;19.40;86.40;;;;;;5107789;28;20032;-85
2023/06/11 05:07:32;;;;;;;7.47;6.32;;;19.40;86.40;;;;;;5108952;28;20126;-84
2023/06/11 05:09:58;;;;;;;7.43;6.30;;;19.40;86.40;;;;;;5109244;28;20473;-85
2023/06/11 05:12:23;;;;;;;7.45;6.55;;;19.40;86.40;;;;;;5108669;28;20020;-84
2023/06/11 05:14:49;;;;;;;7.40;6.60;;;19.40;86.40;;;;;;5106068;28;20028;-85
2023/06/11 05:17:15;;;;;;;7.78;6.63;;;19.40;86.40;;;;;;5107005;28;20365;-86
2023/06/11 05:19:41;;;;;;;8.05;6.88;;;19.40;86.30;;;;;;5105388;28;20031;-85
2023/06/11 05:22:07;;;;;;;7.90;6.72;;;19.40;86.30;;;;;;5106824;28;20028;-85
2023/06/11 05:24:32;;;;;;;7.88;6.78;;;19.40;86.30;;;;;;5105813;28;20503;-85
2023/06/11 05:26:59;;;;;;;7.95;6.82;;;19.40;86.30;;;;;;5103295;28;20472;-84
2023/06/11 05:29:25;;;;;;;8.05;6.93;;;19.40;86.30;;;;;;5103430;28;20024;-84
2023/06/11 05:31:50;;;;;;;6.97;5.90;;;19.50;86.30;;;;;;5103414;28;20087;-84
2023/06/11 05:34:16;;;;;;;7.40;6.10;;;19.50;86.20;;;;;;5103023;28;20055;-84
2023/06/11 05:36:42;;;;;;;7.13;6.05;;;19.50;86.00;;;;;;5102204;28;20081;-85
2023/06/11 05:39:08;;;;;;;7.72;6.53;;;19.50;86.00;;;;;;5101663;28;20540;-84
2023/06/11 05:41:33;;;;;;;7.20;6.13;;;19.60;85.90;;;;;;5101337;28;20031;-84
2023/06/11 05:43:59;;;;;;;6.88;5.75;;;19.50;85.70;;;;;;5100599;28;20030;-84
2023/06/11 05:46:25;;;;;;;7.53;6.38;;;19.60;85.60;;;;;;5100775;28;20022;-84
2023/06/11 05:48:51;;;;;;;7.40;6.15;;;19.60;85.50;;;;;;5100606;28;20149;-84
2023/06/11 05:51:16;;;;;;;7.32;6.20;;;19.60;85.40;;;;;;5101856;28;20034;-85
2023/06/11 05:53:42;;;;;;;7.18;6.10;;;19.60;85.30;;;;;;5101284;28;20085;-84
2023/06/11 05:56:09;;;;;;;7.45;6.30;;;19.60;85.20;;;;;;5099573;28;20064;-84
2023/06/11 05:58:35;;;;;;;7.03;5.80;;;19.60;85.70;;;;;;5098624;28;20024;-84
2023/06/11 06:01:02;;;;;;;6.78;5.80;;;19.70;85.20;;;;;;5093557;22;20132;-81
2023/06/11 06:03:32;;;;;;;6.70;5.57;;;19.70;85.20;;;;;;5036651;28;20029;-80
2023/06/11 06:06:01;;;;;;;7.35;6.20;;;19.60;85.30;;;;;;5036546;28;20374;-80
2023/06/11 06:08:30;;;;;;;7.50;6.43;;;19.60;85.40;;;;;;5036431;28;20555;-80
2023/06/11 06:10:56;;;;;;;7.63;6.43;;;19.60;85.40;;;;;;5036531;28;20029;-80
2023/06/11 06:13:23;;;;;;;7.57;6.55;;;19.60;85.50;;;;;;5036425;28;20039;-80
2023/06/11 06:15:49;;;;;;;7.15;6.15;;;19.60;85.50;;;;;;5036493;28;20031;-80
2023/06/11 06:18:15;;;;;;;7.38;5.82;;;19.60;85.60;;;;;;5054095;28;20096;-80
2023/06/11 06:20:42;;;;;;;7.60;6.25;;;19.60;85.60;;;;;;5054121;28;20117;-81
2023/06/11 06:23:07;;;;;;;7.78;6.30;;;19.60;85.60;;;;;;5036087;28;20025;-81
2023/06/11 06:25:36;;;;;;;7.25;6.18;;;19.60;85.60;;;;;;5036330;28;20397;-81
2023/06/11 06:28:02;;;;;;;7.22;6.30;;;19.60;85.60;;;;;;5036046;28;20070;-81
2023/06/11 06:30:27;;;;;;;7.30;6.10;;;19.60;85.60;;;;;;5036150;28;20017;-81
2023/06/11 06:32:53;;;;;;;7.07;6.07;;;19.60;85.60;;;;;;5053862;28;20032;-81
2023/06/11 06:35:18;;;;;;;7.97;6.70;;;19.60;85.50;;;;;;5036094;28;20036;-81
2023/06/11 06:37:44;;;;;;;7.40;6.30;;;19.60;85.50;;;;;;5053956;28;20025;-81
2023/06/11 06:40:11;;;;;;;7.45;6.10;;;19.60;85.40;;;;;;5035908;28;20508;-81
2023/06/11 06:42:36;;;;;;;7.53;6.15;;;19.60;85.50;;;;;;5035886;28;20029;-81
2023/06/11 06:45:02;;;;;;;7.32;6.05;;;19.70;85.50;;;;;;5035906;28;20496;-81
2023/06/11 06:47:27;;;;;;;7.47;6.18;;;19.70;85.40;;;;;;5034739;28;20067;-81
2023/06/11 06:49:52;;;;;;;7.80;5.95;;;19.70;85.40;;;;;;5035725;28;20025;-81
2023/06/11 06:52:18;;;;;;;7.63;6.57;;;19.70;85.40;;;;;;5053366;28;20021;-81
2023/06/11 06:54:43;;;;;;;7.78;6.63;;;19.70;85.30;;;;;;5035936;28;20029;-81
2023/06/11 06:57:10;;;;;;;7.65;6.30;;;19.70;85.30;;;;;;5053358;28;20378;-81
2023/06/11 06:59:36;;;;;;;7.20;6.03;;;19.80;85.30;;;;;;5035817;28;20036;-80
2023/06/11 07:02:01;;;;;;;8.20;6.97;;;19.80;85.70;;;;;;5053307;28;20040;-81
2023/06/11 07:04:27;;;;;;;7.55;6.07;;;19.80;85.20;;;;;;5035368;28;20021;-81
2023/06/11 07:06:53;;;;;;;8.18;6.57;;;19.80;85.10;;;;;;5053085;28;20024;-80
2023/06/11 07:09:18;;;;;;;8.00;6.97;;;19.80;85.10;;;;;;5035711;28;20021;-80
2023/06/11 07:11:44;;;;;;;7.63;6.70;;;19.90;84.90;;;;;;5035302;28;20021;-80
2023/06/11 07:14:11;;;;;;;7.90;6.70;;;19.90;84.80;;;;;;5035409;28;20017;-82
2023/06/11 07:16:37;;;;;;;7.50;6.30;;;19.90;84.60;;;;;;5035214;28;20025;-80
2023/06/11 07:19:03;;;;;;;7.53;6.15;;;20.00;84.60;;;;;;5035240;28;20040;-80
2023/06/11 07:21:28;;;;;;;7.97;7.00;;;20.00;84.40;;;;;;5035263;28;20021;-81
2023/06/11 07:23:54;;;;;;;7.57;6.60;;;20.00;84.30;;;;;;5052668;28;20035;-83
2023/06/11 07:26:19;;;;;;;7.03;5.70;;;20.00;84.20;;;;;;5035008;28;20483;-81
2023/06/11 07:28:45;;;;;;;8.00;6.68;;;20.10;84.10;;;;;;5035059;28;20018;-81
2023/06/11 07:31:10;;;;;;;7.80;6.13;;;20.10;84.10;;;;;;5034940;28;20021;-81
2023/06/11 07:33:36;;;;;;;7.38;6.30;;;20.10;84.00;;;;;;5035062;28;20098;-81
2023/06/11 07:36:02;;;;;;;7.47;6.55;;;20.10;84.00;;;;;;5035019;28;20048;-81
2023/06/11 07:38:28;;;;;;;7.88;6.43;;;20.00;84.00;;;;;;5034861;28;20025;-81
2023/06/11 07:40:54;;;;;;;7.47;6.20;;;20.10;84.00;;;;;;5035018;28;20033;-81
2023/06/11 07:43:20;;;;;;;7.50;6.28;;;20.10;84.10;;;;;;5034880;28;20392;-81
2023/06/11 07:45:45;;;;;;;10.55;7.28;;;20.00;84.10;;;;;;5034783;28;20107;-82
2023/06/11 07:48:10;;;;;;;10.10;7.50;;;20.10;84.40;;;;;;5052422;28;20025;-81
2023/06/11 07:50:37;;;;;;;11.50;7.10;;;20.10;84.30;;;;;;5034654;28;20040;-82
2023/06/11 07:53:03;;;;;;;11.40;7.60;;;20.10;84.20;;;;;;5034738;28;20091;-81
2023/06/11 07:55:28;;;;;;;8.60;7.20;;;20.10;84.10;;;;;;5034689;28;20056;-81
2023/06/11 07:57:54;;;;;;;9.60;7.47;;;20.10;84.10;;;;;;5034507;28;20032;-81
2023/06/11 08:00:19;;;;;;;10.35;8.07;;;20.10;84.10;;;;;;5034273;28;20028;-81
2023/06/11 08:02:45;;;;;;;13.10;8.95;;;20.20;84.20;;;;;;5034741;28;20477;-81
2023/06/11 08:05:12;;;;;;;14.20;8.45;;;20.20;84.20;;;;;;5034701;28;20017;-81
2023/06/11 08:07:38;;;;;;;12.05;8.70;;;20.20;84.10;;;;;;5034490;28;20021;-81
2023/06/11 08:10:05;;;;;;;11.50;9.50;;;20.20;84.10;;;;;;5034457;28;20477;-81
2023/06/11 08:12:30;;;;;;;10.82;8.70;;;20.20;84.10;;;;;;5034553;28;20024;-81
2023/06/11 08:14:56;;;;;;;11.57;8.55;;;20.20;84.00;;;;;;5034603;28;20021;-81
2023/06/11 08:17:21;;;;;;;10.93;8.77;;;20.20;84.00;;;;;;5034629;28;20128;-81
2023/06/11 08:19:47;;;;;;;10.05;8.20;;;20.20;84.00;;;;;;5034223;28;20100;-81
2023/06/11 08:22:12;;;;;;;9.38;8.38;;;20.30;84.00;;;;;;5034462;28;20370;-81
2023/06/11 08:24:38;;;;;;;12.18;9.05;;;20.20;83.90;;;;;;5034226;28;20032;-81
2023/06/11 08:27:03;;;;;;;10.60;8.60;;;20.30;83.80;;;;;;5034319;28;20028;-81
2023/06/11 08:29:29;;;;;;;10.30;8.55;;;20.30;83.80;;;;;;5034279;28;20440;-81
2023/06/11 08:31:54;;;;;;;10.23;8.15;;;20.30;83.70;;;;;;5034273;28;20029;-81
2023/06/11 08:34:20;;;;;;;12.25;8.57;;;20.40;83.70;;;;;;5034459;28;20155;-81
2023/06/11 08:36:45;;;;;;;9.57;8.32;;;20.40;83.60;;;;;;5051939;28;20409;-81
2023/06/11 08:39:11;;;;;;;10.55;8.80;;;20.40;83.50;;;;;;5034306;28;20048;-81
2023/06/11 08:41:36;;;;;;;11.70;8.55;;;20.40;83.30;;;;;;5034136;28;20021;-81
2023/06/11 08:44:02;;;;;;;10.70;8.25;;;20.50;83.20;;;;;;5034331;28;20036;-81
2023/06/11 08:46:34;;;;;;;9.70;8.32;;;20.50;83.20;;;;;;5034097;28;20021;-81
2023/06/11 08:49:05;;;;;;;10.60;8.27;;;20.50;83.10;;;;;;5051994;28;20401;-81
2023/06/11 08:51:37;;;;;;;9.27;8.20;;;20.50;83.00;;;;;;5052167;28;20485;-81
2023/06/11 08:54:06;;;;;;;9.10;8.10;;;20.50;83.00;;;;;;5034310;28;20029;-81
2023/06/11 08:56:33;;;;;;;9.27;8.13;;;20.50;83.00;;;;;;5033884;28;20127;-80
2023/06/11 08:59:02;;;;;;;11.40;8.25;;;20.50;82.70;;;;;;5051966;28;20429;-80
2023/06/11 09:01:29;;;;;;;10.73;8.68;;;20.50;82.80;;;;;;5033913;28;20068;-81
2023/06/11 09:03:55;;;;;;;9.65;8.00;;;20.50;82.90;;;;;;5051791;28;20033;-80
2023/06/11 09:06:21;;;;;;;10.50;8.50;;;20.50;83.10;;;;;;5033846;28;20029;-81
2023/06/11 09:09:00;;;;;;;9.63;8.63;;;20.50;83.20;;;;;;5034090;28;20025;-80
2023/06/11 09:11:36;;;;;;;9.45;8.45;;;20.50;83.20;;;;;;5036002;28;20025;-80
2023/06/11 09:14:03;;;;;;;9.55;8.50;;;20.50;83.20;;;;;;5037574;28;20029;-81
2023/06/11 09:16:37;;;;;;;10.32;8.63;;;20.60;83.30;;;;;;5037519;28;20024;-80
2023/06/11 09:19:02;;;;;;;9.38;8.25;;;20.60;83.20;;;;;;5037651;28;20039;-81
2023/06/11 09:21:28;;;;;;;9.88;8.57;;;20.60;83.20;;;;;;5037382;28;20377;-81
2023/06/11 09:23:53;;;;;;;11.73;8.40;;;20.60;83.80;;;;;;5037151;28;20477;-81
2023/06/11 09:26:19;;;;;;;9.18;8.20;;;20.60;83.20;;;;;;5037391;28;20060;-80
2023/06/11 09:28:46;;;;;;;9.00;8.00;;;20.60;83.20;;;;;;5037406;28;20028;-82
2023/06/11 09:31:11;;;;;;;9.05;8.15;;;20.60;83.10;;;;;;5055010;28;20017;-81
2023/06/11 09:33:37;;;;;;;9.38;8.38;;;20.60;83.10;;;;;;5037146;28;20086;-81
2023/06/11 09:36:03;;;;;;;9.32;7.88;;;20.60;83.10;;;;;;5037173;28;20385;-81
2023/06/11 09:38:33;;;;;;;10.70;8.07;;;20.60;83.10;;;;;;5037018;28;20114;-81
2023/06/11 09:40:59;;;;;;;9.02;8.05;;;20.60;83.00;;;;;;5037190;28;20031;-81
2023/06/11 09:43:25;;;;;;;9.05;8.07;;;20.70;83.10;;;;;;5037104;28;20436;-81
2023/06/11 09:45:55;;;;;;;9.90;8.32;;;20.70;83.10;;;;;;5037156;28;20118;-81
2023/06/11 09:48:21;;;;;;;9.85;8.13;;;20.70;83.00;;;;;;5036929;28;20159;-82
2023/06/11 09:50:51;;;;;;;9.10;8.20;;;20.70;83.00;;;;;;5036908;28;20025;-82
2023/06/11 09:53:22;;;;;;;8.98;7.97;;;20.70;83.00;;;;;;5036901;28;20024;-81
2023/06/11 09:55:50;;;;;;;10.43;8.30;;;20.70;83.00;;;;;;5036700;28;20501;-80
2023/06/11 09:58:17;;;;;;;9.20;8.20;;;20.70;83.00;;;;;;5036727;28;20029;-81
2023/06/11 10:00:46;;;;;;;8.75;7.75;;;20.70;83.50;;;;;;5036565;28;20033;-80
2023/06/11 10:03:12;;;;;;;8.57;7.50;;;20.70;82.90;;;;;;5036644;28;20033;-81
2023/06/11 10:05:38;;;;;;;8.93;7.38;;;20.80;82.90;;;;;;5036768;28;20021;-80
2023/06/11 10:08:12;;;;;;;9.10;8.07;;;20.80;82.80;;;;;;5036380;28;20381;-81
2023/06/11 10:10:41;;;;;;;9.10;8.10;;;20.80;82.70;;;;;;5036593;28;20111;-80
2023/06/11 10:13:07;;;;;;;9.02;7.97;;;20.80;82.60;;;;;;5036473;28;20112;-81
2023/06/11 10:15:35;;;;;;;9.25;7.40;;;20.80;82.60;;;;;;5036504;28;20044;-80
2023/06/11 10:18:01;;;;;;;8.88;7.97;;;20.80;82.50;;;;;;5036155;28;20029;-82
2023/06/11 10:20:35;;;;;;;8.65;7.63;;;20.90;82.50;;;;;;5036266;28;20037;-82
2023/06/11 10:23:04;;;;;;;8.98;7.80;;;20.90;82.50;;;;;;5053972;28;20028;-82
2023/06/11 10:25:34;;;;;;;8.20;7.30;;;20.90;82.40;;;;;;5036264;28;20495;-82
2023/06/11 10:28:00;;;;;;;8.35;7.45;;;20.90;82.20;;;;;;5036023;28;20025;-81
2023/06/11 10:30:25;;;;;;;8.55;7.65;;;20.90;82.30;;;;;;5036091;28;20387;-81
2023/06/11 10:32:53;;;;;;;8.68;7.78;;;20.90;82.50;;;;;;5036154;28;20028;-81
2023/06/11 10:35:24;;;;;;;8.80;7.90;;;20.90;82.70;;;;;;5036120;28;20088;-81
2023/06/11 10:37:50;;;;;;;9.55;8.18;;;20.90;83.30;;;;;;5035860;28;20354;-80
2023/06/11 10:40:16;;;;;;;9.00;7.57;;;20.80;82.80;;;;;;5036141;28;20021;-80
2023/06/11 10:42:43;;;;;;;8.52;7.63;;;20.90;82.90;;;;;;5035856;28;20444;-81
2023/06/11 10:45:10;;;;;;;9.32;7.90;;;20.90;82.90;;;;;;5035833;28;20017;-81
2023/06/11 10:47:49;;;;;;;8.80;7.65;;;20.80;82.80;;;;;;5035538;28;20021;-81
2023/06/11 10:50:16;;;;;;;9.38;7.93;;;20.80;82.80;;;;;;5053583;28;20021;-80
2023/06/11 10:52:55;;;;;;;8.55;7.65;;;20.80;82.90;;;;;;5053844;28;20035;-80
2023/06/11 10:55:22;;;;;;;8.45;7.55;;;20.80;82.90;;;;;;5035635;28;20021;-81
2023/06/11 10:57:54;;;;;;;9.15;8.18;;;20.80;82.90;;;;;;5035620;28;20028;-81
2023/06/11 11:00:20;;;;;;;8.77;7.47;;;20.80;82.90;;;;;;5053286;28;20029;-81
2023/06/11 11:02:47;;;;;;;8.63;7.63;;;20.80;83.00;;;;;;5035354;28;20499;-81
2023/06/11 11:05:12;;;;;;;8.93;7.53;;;20.80;82.90;;;;;;5035414;28;20112;-80
2023/06/11 11:07:38;;;;;;;8.73;7.82;;;20.80;82.90;;;;;;5035450;28;20060;-80
2023/06/11 11:10:06;;;;;;;8.45;7.53;;;20.80;83.00;;;;;;5035448;28;20028;-80
2023/06/11 11:12:44;;;;;;;9.55;7.93;;;20.80;82.90;;;;;;5035478;28;20025;-81
2023/06/11 11:15:11;;;;;;;8.27;7.38;;;20.80;82.90;;;;;;5053352;28;20021;-81
2023/06/11 11:17:42;;;;;;;8.70;7.70;;;20.70;82.90;;;;;;5035109;28;20025;-81
2023/06/11 11:20:17;;;;;;;8.45;7.22;;;20.80;83.00;;;;;;5053033;28;20044;-81
2023/06/11 11:22:51;;;;;;;8.43;7.53;;;20.80;83.00;;;;;;5053049;28;20031;-80
2023/06/11 11:25:18;;;;;;;8.63;7.70;;;20.80;83.00;;;;;;5035228;28;20037;-81
2023/06/11 11:27:44;;;;;;;8.45;7.25;;;20.80;83.00;;;;;;5034950;28;20025;-81
2023/06/11 11:30:10;;;;;;;8.65;7.60;;;20.80;83.00;;;;;;5035086;28;20017;-81
2023/06/11 11:32:35;;;;;;;8.30;7.40;;;20.90;82.90;;;;;;5035029;28;20120;-81
2023/06/11 11:35:03;;;;;;;8.52;7.60;;;20.80;82.70;;;;;;5034591;28;20112;-81
2023/06/11 11:37:29;;;;;;;8.65;7.25;;;20.80;82.60;;;;;;5034843;28;20035;-81
2023/06/11 11:39:54;;;;;;;8.40;7.20;;;20.90;83.00;;;;;;5034843;28;20025;-81
2023/06/11 11:42:22;;;;;;;8.10;7.00;;;20.90;82.50;;;;;;5034933;28;20031;-81
2023/06/11 11:44:50;;;;;;;8.65;7.53;;;20.90;82.40;;;;;;5034732;28;20148;-81
2023/06/11 11:47:19;;;;;;;8.20;7.32;;;20.90;82.40;;;;;;5052494;28;20032;-81
2023/06/11 11:49:55;;;;;;;8.75;7.50;;;20.90;82.40;;;;;;5052618;28;20017;-81
2023/06/11 11:52:23;;;;;;;8.95;7.25;;;20.90;82.50;;;;;;5034789;28;20025;-81
2023/06/11 11:54:49;;;;;;;8.27;7.07;;;20.90;82.40;;;;;;5034617;28;20506;-81
2023/06/11 11:57:20;;;;;;;8.27;7.28;;;20.90;82.40;;;;;;5052405;28;20508;-81
2023/06/11 11:59:45;;;;;;;8.38;7.30;;;20.90;82.50;;;;;;5034691;28;20033;-81
2023/06/11 12:02:11;;;;;;;7.53;6.60;;;20.80;82.60;;;;;;5073770;22;20045;-84
2023/06/11 12:04:38;;;;;;;9.05;7.80;;;20.80;82.90;;;;;;5059765;28;20067;-84
2023/06/11 12:07:06;;;;;;;8.25;7.30;;;20.70;82.90;;;;;;5040669;28;20020;-84
2023/06/11 12:09:33;;;;;;;8.10;7.25;;;20.80;83.10;;;;;;5058923;28;20078;-84
2023/06/11 12:11:58;;;;;;;8.40;7.50;;;20.70;83.20;;;;;;5040056;28;20120;-86
2023/06/11 12:14:24;;;;;;;8.65;7.75;;;20.70;83.40;;;;;;5040434;28;20064;-85
2023/06/11 12:16:49;;;;;;;8.00;7.13;;;20.70;83.40;;;;;;5058128;28;20386;-84
2023/06/11 12:19:18;;;;;;;9.20;7.75;;;20.70;83.40;;;;;;5039635;28;20032;-83
2023/06/11 12:21:44;;;;;;;8.55;7.53;;;20.70;83.40;;;;;;5057952;28;20028;-84
2023/06/11 12:24:11;;;;;;;8.32;7.07;;;20.70;83.40;;;;;;5058014;28;20032;-85
2023/06/11 12:26:37;;;;;;;8.85;7.15;;;20.70;83.40;;;;;;5038139;28;20039;-84
2023/06/11 12:29:03;;;;;;;7.90;6.93;;;20.70;83.40;;;;;;5037971;28;20036;-84
2023/06/11 12:31:28;;;;;;;9.13;7.88;;;20.70;83.40;;;;;;5037933;28;20033;-84
2023/06/11 12:33:55;;;;;;;8.32;6.57;;;20.70;83.40;;;;;;5056991;28;20029;-83
2023/06/11 12:36:21;;;;;;;8.40;7.50;;;20.70;83.50;;;;;;5055854;28;20032;-83
2023/06/11 12:38:46;;;;;;;8.32;7.15;;;20.70;83.50;;;;;;5037936;28;20025;-83
2023/06/11 12:41:12;;;;;;;7.80;7.00;;;20.60;83.50;;;;;;5055470;28;20025;-84
2023/06/11 12:43:37;;;;;;;8.55;7.18;;;20.70;83.60;;;;;;5037068;28;20025;-84